Time;durP1;ratioP1;P1;durP2;ratioP2;P2;SDS_P1;SDS_P2;PMS_P1;PMS_P2;Temp;Humidity;BMP_temperature;BMP_pressure;BME280_temperature;BME280_humidity;BME280_pressure;Samples;Min_cycle;Max_cycle;Signal;HPM_P1;HPM_P2
2022/09/13 00:01:01;;;;;;;9.68;4.60;;;15.40;99.90;;;;;;5068404;28;20055;-65
2022/09/13 00:03:27;;;;;;;7.35;4.55;;;15.40;99.90;;;;;;5064678;28;20032;-64
2022/09/13 00:05:52;;;;;;;8.40;4.40;;;15.40;99.90;;;;;;5070095;28;20137;-64
2022/09/13 00:08:18;;;;;;;21.73;5.13;;;15.30;99.90;;;;;;5064531;28;20550;-62
2022/09/13 00:10:44;;;;;;;10.95;5.50;;;15.40;99.90;;;;;;5069134;28;20024;-64
2022/09/13 00:13:11;;;;;;;11.40;4.93;;;15.30;99.90;;;;;;5063103;28;20029;-64
2022/09/13 00:15:46;;;;;;;14.07;4.60;;;15.30;99.90;;;;;;5068595;28;20033;-65
2022/09/13 00:18:11;;;;;;;;;;;15.40;99.90;;;;;;5068038;28;20448;-63
2022/09/13 00:20:37;;;;;;;11.95;5.53;;;15.40;99.90;;;;;;5069026;28;19916;-64
2022/09/13 00:23:03;;;;;;;17.10;4.75;;;15.40;99.90;;;;;;5066518;28;20406;-62
2022/09/13 00:25:28;;;;;;;9.95;5.03;;;15.40;99.90;;;;;;5065461;28;20121;-63
2022/09/13 00:27:54;;;;;;;7.53;4.93;;;15.40;99.90;;;;;;5066278;28;20039;-63
2022/09/13 00:30:19;;;;;;;17.13;5.15;;;15.30;99.90;;;;;;5068450;28;20035;-63
2022/09/13 00:32:45;;;;;;;9.65;5.03;;;15.20;99.90;;;;;;5069836;28;20025;-64
2022/09/13 00:35:10;;;;;;;13.25;5.65;;;15.20;99.90;;;;;;5069235;28;20032;-64
2022/09/13 00:37:36;;;;;;;9.32;4.75;;;15.10;99.90;;;;;;5064208;28;20090;-64
2022/09/13 00:40:03;;;;;;;15.57;5.30;;;15.10;99.90;;;;;;5065772;28;20489;-65
2022/09/13 00:42:33;;;;;;;12.80;4.55;;;15.00;99.90;;;;;;5060167;28;20035;-64
2022/09/13 00:45:05;;;;;;;12.25;5.53;;;15.00;99.90;;;;;;5058651;28;20120;-65
2022/09/13 00:47:39;;;;;;;14.13;5.80;;;15.00;99.90;;;;;;5059865;28;20084;-63
2022/09/13 00:50:27;;;;;;;10.50;4.78;;;15.00;99.90;;;;;;5058220;28;20025;-65
2022/09/13 00:53:00;;;;;;;15.32;6.32;;;15.10;99.90;;;;;;5062981;28;20035;-65
2022/09/13 00:55:39;;;;;;;12.05;5.28;;;15.20;99.90;;;;;;5058742;28;20016;-62
2022/09/13 00:58:11;;;;;;;14.65;5.18;;;15.10;99.90;;;;;;5056909;28;20052;-64
2022/09/13 01:00:38;;;;;;;12.10;5.35;;;15.20;99.90;;;;;;5057087;28;20793;-65
2022/09/13 01:03:08;;;;;;;7.45;5.07;;;15.20;99.90;;;;;;5074986;22;20090;-59
2022/09/13 01:05:46;;;;;;;10.57;5.30;;;15.30;99.90;;;;;;5077971;28;20096;-57
2022/09/13 01:08:19;;;;;;;11.00;5.30;;;15.30;99.90;;;;;;5081568;28;20085;-58
2022/09/13 01:10:44;;;;;;;8.25;5.15;;;15.30;99.90;;;;;;5087599;28;20020;-59
2022/09/13 01:13:17;;;;;;;8.65;5.15;;;15.30;99.90;;;;;;5074634;28;20024;-58
2022/09/13 01:15:43;;;;;;;11.75;6.10;;;15.20;99.90;;;;;;5063315;28;20046;-58
2022/09/13 01:18:10;;;;;;;12.52;5.15;;;15.20;99.90;;;;;;5067631;28;20028;-57
2022/09/13 01:21:32;;;;;;;12.27;6.43;;;15.20;99.90;;;;;;5074076;28;20029;-58
2022/09/13 01:24:35;;;;;;;9.70;5.57;;;15.20;99.90;;;;;;5071371;28;20555;-58
2022/09/13 01:27:29;;;;;;;7.45;4.53;;;15.10;99.90;;;;;;5063050;28;20031;-58
2022/09/13 01:30:10;;;;;;;10.70;5.35;;;15.20;99.90;;;;;;5067254;28;20025;-58
2022/09/13 01:32:42;;;;;;;10.50;5.55;;;15.20;99.90;;;;;;5071832;28;20109;-58
2022/09/13 01:35:25;;;;;;;15.30;5.28;;;15.10;99.90;;;;;;5063715;28;20033;-58
2022/09/13 01:37:56;;;;;;;11.75;5.00;;;15.20;99.90;;;;;;5064637;28;20075;-58
2022/09/13 01:41:00;;;;;;;9.85;5.55;;;15.10;99.90;;;;;;5063313;28;20512;-57
2022/09/13 01:44:00;;;;;;;13.07;5.03;;;15.10;99.90;;;;;;5069038;28;20032;-57
2022/09/13 01:46:44;;;;;;;12.15;5.25;;;15.00;99.90;;;;;;5067197;28;20020;-58
2022/09/13 01:49:33;;;;;;;11.25;6.25;;;15.00;99.90;;;;;;5062745;28;20029;-58
2022/09/13 01:52:16;;;;;;;10.32;5.40;;;14.90;99.90;;;;;;5065803;28;20024;-57
2022/09/13 01:55:02;;;;;;;13.38;5.25;;;14.90;99.90;;;;;;5067184;28;20032;-58
2022/09/13 01:57:48;;;;;;;10.25;4.82;;;14.90;99.90;;;;;;5066345;28;20136;-57
2022/09/13 02:00:17;;;;;;;10.60;5.05;;;15.00;99.90;;;;;;5065779;28;20028;-59
2022/09/13 02:02:58;;;;;;;13.82;5.47;;;15.00;99.90;;;;;;5065656;28;20055;-57
2022/09/13 02:05:43;;;;;;;7.70;5.38;;;15.00;99.90;;;;;;5063922;28;20553;-57
2022/09/13 02:08:30;;;;;;;10.77;5.82;;;15.00;99.90;;;;;;5070365;28;20033;-56
2022/09/13 02:11:17;;;;;;;12.02;5.10;;;15.00;99.90;;;;;;5071462;28;20107;-56
2022/09/13 02:13:50;;;;;;;11.38;5.07;;;14.90;99.90;;;;;;5054515;28;20448;-56
2022/09/13 02:16:27;;;;;;;11.63;6.03;;;14.90;99.90;;;;;;5064990;28;20025;-59
2022/09/13 02:19:01;;;;;;;9.50;5.63;;;14.90;99.90;;;;;;5066355;28;20033;-57
2022/09/13 02:21:32;;;;;;;;;;;14.90;99.90;;;;;;5072700;28;20036;-58
2022/09/13 02:24:09;;;;;;;11.18;4.53;;;15.00;99.90;;;;;;5065146;28;19916;-56
2022/09/13 02:26:38;;;;;;;10.27;5.20;;;15.00;99.90;;;;;;5072780;28;20059;-57
2022/09/13 02:29:12;;;;;;;15.80;5.72;;;15.10;99.90;;;;;;5072403;28;20090;-58
2022/09/13 02:31:47;;;;;;;11.30;5.88;;;15.10;99.90;;;;;;5068194;28;20024;-56
2022/09/13 02:34:23;;;;;;;9.52;5.63;;;15.10;99.90;;;;;;5068288;28;20036;-56
2022/09/13 02:36:54;;;;;;;12.10;5.32;;;15.10;99.90;;;;;;5070290;28;20032;-57
2022/09/13 02:39:24;;;;;;;15.00;5.90;;;15.20;99.90;;;;;;5074785;28;20123;-56
2022/09/13 02:42:01;;;;;;;11.88;4.90;;;15.20;99.90;;;;;;5069951;28;20041;-57
2022/09/13 02:44:48;;;;;;;9.10;5.05;;;15.20;99.90;;;;;;5065228;28;20120;-55
2022/09/13 02:47:48;;;;;;;7.70;5.18;;;15.30;99.90;;;;;;5068662;28;20025;-56
2022/09/13 02:51:08;;;;;;;8.30;5.10;;;15.30;99.90;;;;;;5078629;28;20036;-56
2022/09/13 02:53:42;;;;;;;10.75;4.28;;;15.40;99.90;;;;;;5004941;28;20034;-57
2022/09/13 02:56:26;;;;;;;;;;;15.40;99.90;;;;;;5062495;28;20044;-57
2022/09/13 02:59:11;;;;;;;11.80;4.68;;;15.50;99.90;;;;;;5073085;28;19956;-57
2022/09/13 03:01:38;;;;;;;10.65;5.47;;;15.50;99.90;;;;;;5076272;28;20497;-58
2022/09/13 03:04:04;;;;;;;5.80;4.32;;;15.60;99.90;;;;;;5068964;28;20037;-57
2022/09/13 03:06:30;;;;;;;7.38;4.18;;;15.60;99.90;;;;;;5070531;28;20028;-58
2022/09/13 03:08:59;;;;;;;7.35;5.20;;;15.70;99.90;;;;;;5074417;28;20498;-58
2022/09/13 03:11:55;;;;;;;10.68;5.80;;;15.70;99.90;;;;;;5068584;28;20033;-58
2022/09/13 03:14:43;;;;;;;13.02;5.07;;;15.80;99.90;;;;;;5072247;28;20029;-58
2022/09/13 03:17:45;;;;;;;9.88;5.68;;;15.80;99.90;;;;;;5074757;28;20081;-58
2022/09/13 03:20:22;;;;;;;8.52;4.97;;;15.80;99.90;;;;;;5068796;28;20174;-58
2022/09/13 03:23:08;;;;;;;12.30;5.25;;;15.80;99.90;;;;;;5071671;28;20025;-58
2022/09/13 03:26:06;;;;;;;12.02;4.97;;;15.90;99.90;;;;;;5073240;28;20490;-57
2022/09/13 03:28:54;;;;;;;8.32;4.95;;;15.90;99.90;;;;;;5069611;28;20052;-58
2022/09/13 03:32:05;;;;;;;8.63;5.20;;;15.90;99.90;;;;;;5065923;28;20056;-57
2022/09/13 03:34:54;;;;;;;9.52;5.30;;;15.90;99.90;;;;;;5027406;28;20869;-58
2022/09/13 03:37:34;;;;;;;11.07;5.00;;;15.90;99.90;;;;;;5067615;28;20127;-57
2022/09/13 03:40:07;;;;;;;13.77;5.13;;;15.90;99.90;;;;;;5063796;28;20025;-58
2022/09/13 03:42:47;;;;;;;12.57;5.47;;;15.90;99.90;;;;;;5072990;28;20024;-58
2022/09/13 03:45:15;;;;;;;10.57;5.30;;;15.90;99.90;;;;;;5069208;28;20814;-59
2022/09/13 03:47:44;;;;;;;12.52;5.57;;;15.90;99.90;;;;;;5067362;28;20316;-58
2022/09/13 03:50:16;;;;;;;7.03;5.07;;;15.80;99.90;;;;;;5071831;28;20458;-58
2022/09/13 03:52:44;;;;;;;11.45;5.35;;;15.80;99.90;;;;;;5062757;28;20445;-55
2022/09/13 03:55:10;;;;;;;22.20;5.63;;;15.80;99.90;;;;;;5066301;28;20089;-58
2022/09/13 03:57:36;;;;;;;7.32;5.10;;;15.80;99.90;;;;;;5070267;28;20155;-58
2022/09/13 04:00:02;;;;;;;7.72;4.90;;;15.80;99.90;;;;;;5064927;28;20033;-59
2022/09/13 04:02:28;;;;;;;8.82;4.93;;;15.80;99.90;;;;;;5075472;28;20031;-56
2022/09/13 04:04:53;;;;;;;17.98;6.13;;;15.70;99.90;;;;;;5065989;28;20390;-58
2022/09/13 04:07:21;;;;;;;12.10;5.47;;;15.70;99.90;;;;;;5066690;28;20059;-59
2022/09/13 04:09:46;;;;;;;13.00;5.22;;;15.70;99.90;;;;;;5072360;28;20024;-58
2022/09/13 04:12:14;;;;;;;13.18;5.32;;;15.70;99.90;;;;;;5076473;28;20495;-58
2022/09/13 04:14:40;;;;;;;8.40;5.68;;;15.70;99.90;;;;;;5066387;28;20063;-58
2022/09/13 04:17:06;;;;;;;8.68;5.65;;;15.70;99.90;;;;;;5068062;28;20099;-57
2022/09/13 04:19:32;;;;;;;11.60;5.43;;;15.80;99.90;;;;;;5072203;28;20024;-58
2022/09/13 04:21:58;;;;;;;9.45;6.13;;;15.80;99.90;;;;;;5065244;28;20160;-57
2022/09/13 04:24:25;;;;;;;12.20;5.70;;;15.80;99.90;;;;;;5076628;28;20104;-58
2022/09/13 04:26:53;;;;;;;7.50;4.78;;;15.80;99.90;;;;;;5066744;28;20408;-58
2022/09/13 04:29:20;;;;;;;9.82;5.88;;;15.90;99.90;;;;;;5072733;28;20044;-59
2022/09/13 04:31:46;;;;;;;7.80;5.70;;;16.00;99.90;;;;;;5067906;28;20025;-60
2022/09/13 04:34:11;;;;;;;8.68;5.43;;;16.00;99.90;;;;;;5065552;28;20059;-58
2022/09/13 04:36:38;;;;;;;9.55;5.60;;;15.90;99.90;;;;;;5065454;28;20064;-58
2022/09/13 04:39:03;;;;;;;7.88;5.18;;;15.90;99.90;;;;;;5074122;28;20035;-58
2022/09/13 04:41:30;;;;;;;10.27;5.75;;;15.90;99.90;;;;;;5074678;28;20032;-57
2022/09/13 04:43:56;;;;;;;10.95;5.28;;;15.90;99.90;;;;;;5074164;28;20033;-59
2022/09/13 04:46:21;;;;;;;11.43;5.90;;;16.00;99.90;;;;;;5074501;28;20029;-59
2022/09/13 04:48:51;;;;;;;7.88;4.78;;;15.90;99.90;;;;;;5073216;28;20382;-58
2022/09/13 04:51:17;;;;;;;8.20;4.97;;;15.90;99.90;;;;;;5074297;28;20046;-60
2022/09/13 04:53:44;;;;;;;7.88;4.85;;;15.90;99.90;;;;;;5066723;28;20021;-59
2022/09/13 04:56:09;;;;;;;10.63;5.05;;;15.90;99.90;;;;;;5069376;28;20178;-57
2022/09/13 04:58:35;;;;;;;8.15;4.60;;;15.90;99.90;;;;;;5067866;28;20545;-63
2022/09/13 05:01:02;;;;;;;7.55;4.60;;;16.00;99.90;;;;;;5058329;28;20033;-59
2022/09/13 05:03:33;;;;;;;12.35;4.80;;;16.00;99.90;;;;;;5065099;28;20040;-59
2022/09/13 05:06:07;;;;;;;14.05;5.50;;;16.00;99.90;;;;;;5064245;28;20017;-59
2022/09/13 05:08:35;;;;;;;9.40;5.38;;;16.00;99.90;;;;;;5071456;28;20037;-58
2022/09/13 05:11:01;;;;;;;9.35;5.20;;;16.00;99.90;;;;;;5057721;28;20020;-58
2022/09/13 05:13:27;;;;;;;6.72;4.88;;;16.00;99.90;;;;;;5062596;28;20040;-58
2022/09/13 05:15:57;;;;;;;8.50;5.20;;;16.10;99.90;;;;;;5066456;28;20112;-56
2022/09/13 05:18:27;;;;;;;10.38;5.57;;;16.10;99.90;;;;;;5063837;28;20027;-59
2022/09/13 05:20:54;;;;;;;8.93;5.85;;;16.10;99.90;;;;;;5067767;28;20028;-59
2022/09/13 05:23:20;;;;;;;10.68;4.78;;;16.10;99.90;;;;;;5065929;28;20025;-57
2022/09/13 05:25:55;;;;;;;12.60;5.38;;;16.20;99.90;;;;;;5067519;28;20036;-59
2022/09/13 05:28:20;;;;;;;;;;;16.20;99.90;;;;;;5064400;28;20025;-58
2022/09/13 05:31:19;;;;;;;8.98;5.60;;;16.30;99.90;;;;;;5066456;28;19953;-59
2022/09/13 05:33:47;;;;;;;10.57;5.20;;;16.30;99.90;;;;;;5066872;28;20025;-59
2022/09/13 05:36:12;;;;;;;10.52;5.78;;;16.40;99.90;;;;;;5068146;28;20029;-57
2022/09/13 05:38:38;;;;;;;12.30;5.75;;;16.40;99.90;;;;;;5064100;28;20032;-59
2022/09/13 05:41:04;;;;;;;16.00;4.95;;;16.40;99.90;;;;;;5066862;28;20078;-59
2022/09/13 05:43:33;;;;;;;8.68;5.55;;;16.40;99.90;;;;;;5073487;28;20039;-56
2022/09/13 05:46:03;;;;;;;10.07;5.68;;;16.40;99.90;;;;;;5057525;28;20139;-54
2022/09/13 05:48:30;;;;;;;8.68;4.95;;;16.40;99.90;;;;;;5055310;28;20040;-56
2022/09/13 05:50:55;;;;;;;7.90;4.95;;;16.50;99.90;;;;;;5059847;28;20431;-56
2022/09/13 05:53:21;;;;;;;11.95;4.88;;;16.50;99.90;;;;;;5067034;28;20052;-56
2022/09/13 05:55:46;;;;;;;11.02;4.50;;;16.50;99.90;;;;;;5059572;28;20036;-56
2022/09/13 05:58:12;;;;;;;6.90;4.43;;;16.60;99.90;;;;;;5063203;28;20107;-55
2022/09/13 06:00:37;;;;;;;15.15;5.72;;;16.60;99.90;;;;;;5068050;28;20035;-56
2022/09/13 06:03:03;;;;;;;7.03;4.75;;;16.70;99.90;;;;;;5071105;28;20509;-55
2022/09/13 06:05:28;;;;;;;14.77;5.57;;;16.70;99.90;;;;;;5066239;28;20109;-54
2022/09/13 06:07:54;;;;;;;11.48;5.40;;;16.70;99.90;;;;;;5066252;28;20032;-53
2022/09/13 06:10:20;;;;;;;10.25;5.80;;;16.70;99.90;;;;;;5060987;28;20129;-57
2022/09/13 06:12:46;;;;;;;14.90;5.93;;;16.70;99.90;;;;;;5067901;28;20735;-56
2022/09/13 06:15:12;;;;;;;8.73;4.88;;;16.80;99.90;;;;;;5060462;28;20035;-58
2022/09/13 06:17:37;;;;;;;8.52;5.00;;;16.80;99.90;;;;;;5068513;28;21280;-58
2022/09/13 06:20:04;;;;;;;9.10;5.20;;;16.90;99.90;;;;;;5066147;28;20055;-57
2022/09/13 06:22:32;;;;;;;12.10;5.15;;;16.90;99.90;;;;;;5065221;28;20039;-56
2022/09/13 06:24:58;;;;;;;7.97;4.53;;;17.00;99.90;;;;;;5062867;28;20028;-57
2022/09/13 06:27:24;;;;;;;15.20;4.90;;;17.10;99.90;;;;;;5063717;28;20602;-57
2022/09/13 06:29:49;;;;;;;14.25;5.30;;;17.10;99.90;;;;;;5061604;28;20036;-56
2022/09/13 06:32:15;;;;;;;9.00;5.05;;;17.20;99.90;;;;;;5060989;28;20110;-56
2022/09/13 06:34:41;;;;;;;10.95;5.68;;;17.30;99.90;;;;;;5062492;28;20029;-57
2022/09/13 06:37:06;;;;;;;9.73;4.93;;;17.30;99.90;;;;;;5061002;28;20091;-56
2022/09/13 06:39:33;;;;;;;12.32;5.65;;;17.30;99.90;;;;;;5054145;28;20711;-56
2022/09/13 06:41:58;;;;;;;15.35;5.45;;;17.30;99.90;;;;;;5063473;28;20064;-56
2022/09/13 06:44:24;;;;;;;9.45;5.10;;;17.40;99.90;;;;;;5055121;28;20498;-56
2022/09/13 06:46:50;;;;;;;8.95;4.30;;;17.40;99.90;;;;;;5062470;28;20529;-57
2022/09/13 06:49:15;;;;;;;13.57;5.20;;;17.40;99.90;;;;;;5062888;28;20043;-56
2022/09/13 06:51:40;;;;;;;6.43;5.45;;;17.50;99.90;;;;;;5061698;28;20295;-56
2022/09/13 06:54:06;;;;;;;11.80;5.97;;;17.60;99.90;;;;;;5059168;28;20033;-56
2022/09/13 06:56:34;;;;;;;18.92;6.18;;;17.60;99.90;;;;;;5067289;28;20028;-57
2022/09/13 06:59:03;;;;;;;7.30;4.88;;;17.70;99.90;;;;;;5065449;28;20403;-57
2022/09/13 07:01:31;;;;;;;9.30;4.65;;;17.80;99.90;;;;;;5060231;28;20039;-58
2022/09/13 07:03:58;;;;;;;5.60;4.65;;;17.90;99.90;;;;;;5089632;22;20068;-63
2022/09/13 07:06:27;;;;;;;11.77;4.15;;;17.90;99.90;;;;;;5060891;28;20035;-63
2022/09/13 07:08:53;;;;;;;11.45;4.88;;;18.00;99.90;;;;;;5065747;28;20494;-63
2022/09/13 07:11:21;;;;;;;6.32;4.07;;;18.10;99.90;;;;;;5063340;28;20390;-63
2022/09/13 07:13:54;;;;;;;7.53;4.47;;;18.20;99.90;;;;;;5054975;28;20529;-63
2022/09/13 07:16:23;;;;;;;5.65;4.13;;;18.30;99.90;;;;;;5042906;28;20373;-63
2022/09/13 07:18:53;;;;;;;10.75;4.82;;;18.40;99.90;;;;;;5047255;28;20510;-63
2022/09/13 07:21:19;;;;;;;10.20;4.82;;;18.40;99.90;;;;;;5046395;28;20025;-64
2022/09/13 07:23:44;;;;;;;6.05;4.68;;;18.50;99.90;;;;;;5050458;28;20040;-63
2022/09/13 07:26:10;;;;;;;8.35;5.15;;;18.50;99.90;;;;;;5049565;28;20025;-62
2022/09/13 07:28:38;;;;;;;9.98;4.43;;;18.60;99.90;;;;;;5046702;28;20029;-64
2022/09/13 07:31:12;;;;;;;7.28;4.63;;;18.70;99.90;;;;;;5048265;28;20645;-64
2022/09/13 07:33:39;;;;;;;9.55;4.80;;;18.70;99.90;;;;;;5046967;28;20171;-65
2022/09/13 07:36:05;;;;;;;8.85;5.13;;;18.80;99.90;;;;;;5047884;28;20029;-64
2022/09/13 07:38:49;;;;;;;13.48;5.57;;;18.90;99.90;;;;;;5041939;28;20029;-64
2022/09/13 07:41:17;;;;;;;9.17;4.53;;;18.90;99.90;;;;;;5049902;28;20509;-57
2022/09/13 07:43:43;;;;;;;7.65;4.15;;;19.00;99.90;;;;;;5049749;28;20387;-57
2022/09/13 07:46:18;;;;;;;11.18;4.28;;;19.10;99.90;;;;;;5049580;28;20025;-59
2022/09/13 07:48:45;;;;;;;10.43;5.45;;;19.20;99.90;;;;;;5051770;28;20479;-57
2022/09/13 07:51:13;;;;;;;12.60;4.93;;;19.20;99.90;;;;;;5048803;28;20115;-57
2022/09/13 07:53:41;;;;;;;7.93;4.82;;;19.30;99.90;;;;;;5048915;28;20033;-58
2022/09/13 07:56:08;;;;;;;10.82;4.30;;;19.40;99.90;;;;;;5051203;28;20222;-57
2022/09/13 07:58:36;;;;;;;6.93;4.38;;;19.40;99.90;;;;;;5048219;28;20487;-59
2022/09/13 08:01:08;;;;;;;8.23;4.20;;;19.40;99.90;;;;;;5050742;28;20520;-57
2022/09/13 08:03:35;;;;;;;11.95;4.43;;;19.60;99.90;;;;;;5048290;28;20032;-57
2022/09/13 08:06:01;;;;;;;12.57;4.40;;;19.70;99.90;;;;;;5048006;28;20029;-53
2022/09/13 08:08:31;;;;;;;7.15;4.03;;;19.70;99.90;;;;;;5052643;28;20127;-56
2022/09/13 08:10:57;;;;;;;6.82;3.78;;;19.80;99.90;;;;;;5048456;28;20032;-58
2022/09/13 08:13:23;;;;;;;6.10;4.55;;;19.90;99.90;;;;;;5049000;28;20479;-56
2022/09/13 08:15:49;;;;;;;8.90;4.28;;;20.00;99.90;;;;;;5049773;28;20025;-57
2022/09/13 08:18:16;;;;;;;7.78;4.10;;;20.10;99.90;;;;;;5049759;28;20021;-55
2022/09/13 08:20:42;;;;;;;5.95;4.13;;;20.20;99.90;;;;;;5041958;28;20035;-58
2022/09/13 08:23:09;;;;;;;5.57;3.58;;;20.20;99.90;;;;;;5049731;28;20041;-57
2022/09/13 08:25:36;;;;;;;9.65;4.20;;;20.30;99.90;;;;;;5049087;28;20486;-57
2022/09/13 08:28:09;;;;;;;5.55;3.90;;;20.40;99.90;;;;;;5048333;28;20546;-58
2022/09/13 08:30:36;;;;;;;5.60;3.40;;;20.50;99.90;;;;;;5048189;28;20031;-57
2022/09/13 08:33:03;;;;;;;6.57;3.42;;;20.60;99.90;;;;;;5051581;28;20074;-59
2022/09/13 08:35:29;;;;;;;10.00;4.03;;;20.70;99.90;;;;;;5046031;28;20036;-55
2022/09/13 08:37:55;;;;;;;6.22;3.92;;;20.80;99.90;;;;;;5051138;28;20119;-56
2022/09/13 08:40:23;;;;;;;9.82;3.95;;;20.80;99.90;;;;;;5047954;28;20482;-56
2022/09/13 08:42:48;;;;;;;7.75;3.55;;;20.80;99.90;;;;;;5047646;28;20040;-59
2022/09/13 08:45:14;;;;;;;14.30;3.78;;;20.80;99.90;;;;;;5051262;28;20037;-58
2022/09/13 08:48:03;;;;;;;7.70;3.72;;;20.90;99.90;;;;;;5048360;28;20525;-57
2022/09/13 08:50:37;;;;;;;9.98;3.33;;;21.00;99.90;;;;;;5047142;28;20513;-57
2022/09/13 08:53:15;;;;;;;12.50;5.93;;;21.10;99.90;;;;;;5040197;28;20063;-58
2022/09/13 08:56:03;;;;;;;7.47;3.38;;;21.10;99.90;;;;;;5044375;28;20029;-53
2022/09/13 08:58:29;;;;;;;24.60;5.15;;;21.20;99.90;;;;;;5048135;28;20028;-57
2022/09/13 09:01:06;;;;;;;16.65;3.70;;;21.30;99.90;;;;;;5046321;28;20017;-57
2022/09/13 09:04:04;;;;;;;5.70;3.20;;;21.40;99.90;;;;;;5047571;28;20064;-58
2022/09/13 09:06:29;;;;;;;4.60;2.72;;;21.50;99.90;;;;;;5043761;28;20071;-57
2022/09/13 09:09:17;;;;;;;6.32;3.03;;;21.70;99.90;;;;;;5055482;28;20052;-57
2022/09/13 09:11:51;;;;;;;5.10;3.08;;;21.80;99.90;;;;;;5047960;28;20048;-58
2022/09/13 09:14:34;;;;;;;5.50;2.70;;;21.80;99.90;;;;;;5049036;28;20035;-58
2022/09/13 09:17:03;;;;;;;9.40;3.05;;;22.00;99.90;;;;;;5048325;28;20036;-57
2022/09/13 09:19:35;;;;;;;4.60;2.28;;;22.00;99.90;;;;;;5041988;28;20493;-57
2022/09/13 09:22:12;;;;;;;4.70;2.42;;;22.10;99.90;;;;;;5047094;28;20111;-57
2022/09/13 09:24:43;;;;;;;8.85;2.88;;;22.20;99.90;;;;;;5055051;28;20033;-57
2022/09/13 09:27:14;;;;;;;9.93;3.10;;;22.20;99.90;;;;;;5048840;28;20025;-56
2022/09/13 09:29:43;;;;;;;6.63;2.65;;;22.20;99.90;;;;;;5043926;28;20036;-57
2022/09/13 09:32:26;;;;;;;11.30;3.13;;;22.40;99.90;;;;;;5039257;28;20027;-57
2022/09/13 09:35:21;;;;;;;5.25;2.67;;;22.60;99.90;;;;;;5042082;28;20593;-58
2022/09/13 09:37:58;;;;;;;6.68;2.10;;;22.80;99.90;;;;;;5042754;28;20024;-57
2022/09/13 09:40:24;;;;;;;4.53;2.03;;;22.90;99.90;;;;;;5043364;28;20135;-55
2022/09/13 09:42:49;;;;;;;14.30;2.83;;;22.90;99.90;;;;;;5048684;28;20471;-57
2022/09/13 09:45:33;;;;;;;8.52;2.25;;;23.00;99.90;;;;;;5047058;28;20041;-57
2022/09/13 09:48:05;;;;;;;7.67;2.13;;;23.10;99.90;;;;;;5047967;28;20032;-58
2022/09/13 09:50:40;;;;;;;6.63;2.00;;;23.10;99.90;;;;;;5045416;28;20037;-58
2022/09/13 09:53:05;;;;;;;;;;;23.00;99.90;;;;;;5045613;28;20533;-55
2022/09/13 09:55:38;;;;;;;4.88;1.95;;;23.30;99.90;;;;;;5046484;28;19909;-58
2022/09/13 09:58:07;;;;;;;4.32;1.85;;;23.40;99.90;;;;;;5048178;28;20040;-58
2022/09/13 10:00:49;;;;;;;3.70;1.90;;;23.60;99.90;;;;;;5048269;28;20036;-58
2022/09/13 10:03:23;;;;;;;4.43;2.22;;;23.80;99.90;;;;;;5048303;28;20021;-56
2022/09/13 10:05:48;;;;;;;9.65;2.88;;;24.00;99.90;;;;;;5040109;28;20029;-59
2022/09/13 10:08:47;;;;;;;10.48;2.20;;;23.90;99.90;;;;;;5047082;28;20028;-57
2022/09/13 10:11:13;;;;;;;6.50;2.30;;;24.00;99.90;;;;;;5033674;28;20041;-59
2022/09/13 10:13:59;;;;;;;6.20;2.35;;;24.10;99.90;;;;;;5049415;28;20596;-59
2022/09/13 10:16:28;;;;;;;3.35;2.00;;;24.20;99.90;;;;;;5048328;28;20036;-59
2022/09/13 10:19:14;;;;;;;10.38;2.72;;;24.50;99.90;;;;;;5041649;28;20022;-58
2022/09/13 10:21:40;;;;;;;4.97;2.38;;;24.50;99.90;;;;;;5045986;28;20022;-58
2022/09/13 10:24:16;;;;;;;11.57;4.15;;;24.60;99.90;;;;;;5051084;28;20552;-56
2022/09/13 10:26:41;;;;;;;5.22;1.95;;;24.60;99.90;;;;;;5049039;28;20021;-57
2022/09/13 10:29:15;;;;;;;4.90;2.03;;;24.60;99.90;;;;;;5048743;28;20095;-54
2022/09/13 10:31:46;;;;;;;13.03;2.23;;;24.70;99.90;;;;;;5049025;28;20013;-60
2022/09/13 10:34:34;;;;;;;3.28;1.83;;;24.90;99.90;;;;;;5048129;28;20635;-58
2022/09/13 10:37:16;;;;;;;10.55;1.70;;;24.80;99.90;;;;;;5050459;28;20072;-58
2022/09/13 10:40:26;;;;;;;4.25;1.73;;;24.50;99.90;;;;;;5054712;28;20409;-55
2022/09/13 10:43:00;;;;;;;2.92;1.70;;;24.50;99.90;;;;;;5031052;28;20033;-53
2022/09/13 10:45:29;;;;;;;2.70;1.00;;;24.50;99.90;;;;;;5049066;28;20056;-57
2022/09/13 10:48:04;;;;;;;1.88;1.45;;;24.50;99.90;;;;;;5049269;28;20021;-53
2022/09/13 10:50:34;;;;;;;14.02;1.63;;;24.60;99.90;;;;;;5046648;28;20017;-57
2022/09/13 10:53:02;;;;;;;4.85;1.30;;;24.80;99.90;;;;;;5048243;28;20486;-57
2022/09/13 10:55:29;;;;;;;2.63;1.52;;;24.80;99.90;;;;;;5046511;28;20430;-60
2022/09/13 10:58:00;;;;;;;3.47;1.38;;;24.70;99.90;;;;;;5053057;28;20487;-58
2022/09/13 11:00:45;;;;;;;2.50;1.20;;;24.80;99.90;;;;;;5051420;28;20039;-57
2022/09/13 11:03:23;;;;;;;3.25;0.90;;;25.00;99.90;;;;;;5049422;28;20017;-57
2022/09/13 11:06:04;;;;;;;2.13;1.30;;;25.20;99.90;;;;;;5052111;28;20025;-54
2022/09/13 11:08:55;;;;;;;4.05;1.45;;;25.20;99.90;;;;;;5050866;28;20021;-56
2022/09/13 11:12:08;;;;;;;2.63;1.33;;;25.20;99.90;;;;;;5045811;28;20021;-58
2022/09/13 11:15:03;;;;;;;7.88;2.40;;;25.30;99.90;;;;;;4997768;28;20109;-59
2022/09/13 11:17:39;;;;;;;;;;;25.10;99.90;;;;;;5049912;28;20025;-60
2022/09/13 11:20:49;;;;;;;5.07;1.70;;;25.10;99.90;;;;;;5052691;28;19916;-58
2022/09/13 11:23:28;;;;;;;4.55;1.50;;;25.20;99.90;;;;;;5016050;28;20041;-60
2022/09/13 11:26:07;;;;;;;3.55;1.25;;;25.50;99.90;;;;;;5052236;28;20025;-58
2022/09/13 11:28:59;;;;;;;9.50;1.92;;;25.70;99.90;;;;;;5049489;28;20029;-59
2022/09/13 11:31:42;;;;;;;7.55;2.15;;;25.80;99.90;;;;;;5045981;28;20029;-60
2022/09/13 11:34:24;;;;;;;5.65;1.50;;;26.00;99.90;;;;;;5051654;28;20355;-60
2022/09/13 11:37:16;;;;;;;4.05;1.20;;;26.00;99.90;;;;;;5048956;28;20044;-60
2022/09/13 11:40:08;;;;;;;4.47;1.60;;;26.30;99.90;;;;;;5049303;28;20033;-59
2022/09/13 11:42:49;;;;;;;5.45;1.40;;;26.50;99.90;;;;;;5041526;28;20029;-60
2022/09/13 11:45:27;;;;;;;3.45;1.30;;;26.70;99.90;;;;;;5042294;28;20052;-59
2022/09/13 11:48:29;;;;;;;1.13;1.00;;;26.80;99.90;;;;;;5050442;28;20100;-59
2022/09/13 11:51:19;;;;;;;3.13;1.10;;;27.20;99.90;;;;;;5052950;28;20037;-60
2022/09/13 11:53:58;;;;;;;2.92;1.98;;;27.50;99.90;;;;;;5047387;28;20483;-59
2022/09/13 11:56:37;;;;;;;2.85;0.90;;;27.50;99.90;;;;;;5050312;28;20119;-59
2022/09/13 11:59:28;;;;;;;5.68;1.40;;;27.70;99.90;;;;;;5049709;28;20407;-59
2022/09/13 12:01:58;;;;;;;3.30;1.27;;;27.60;99.90;;;;;;5048093;28;20116;-59
2022/09/13 12:04:30;;;;;;;1.52;1.20;;;27.40;99.90;;;;;;5043871;28;20024;-59
2022/09/13 12:07:00;;;;;;;1.58;1.05;;;27.60;99.90;;;;;;5047962;28;20025;-59
2022/09/13 12:09:35;;;;;;;2.00;1.13;;;27.80;99.90;;;;;;5049663;28;20063;-60
2022/09/13 12:12:10;;;;;;;5.45;1.38;;;27.90;99.90;;;;;;5042857;28;20071;-59
2022/09/13 12:14:49;;;;;;;4.60;1.00;;;27.60;99.90;;;;;;5044950;28;20131;-58
2022/09/13 12:17:34;;;;;;;2.55;0.77;;;27.40;99.90;;;;;;5046408;28;20029;-59
2022/09/13 12:20:04;;;;;;;1.88;1.27;;;27.20;99.90;;;;;;5044520;28;20579;-60
2022/09/13 12:22:33;;;;;;;5.93;0.90;;;27.30;99.90;;;;;;5048275;28;20043;-60
2022/09/13 12:25:06;;;;;;;4.25;1.05;;;27.40;99.90;;;;;;5045316;28;20048;-58
2022/09/13 12:27:51;;;;;;;1.85;1.00;;;27.80;99.90;;;;;;5048711;28;20025;-59
2022/09/13 12:30:19;;;;;;;2.60;1.00;;;28.00;99.90;;;;;;5046406;28;20398;-56
2022/09/13 12:32:47;;;;;;;4.22;1.20;;;27.90;99.90;;;;;;5049471;28;20020;-58
2022/09/13 12:35:31;;;;;;;1.88;1.20;;;27.60;99.90;;;;;;5048596;28;20044;-54
2022/09/13 12:38:09;;;;;;;;;;;27.40;99.90;;;;;;5049888;28;20021;-56
2022/09/13 12:41:11;;;;;;;3.65;1.60;;;27.80;99.90;;;;;;5044534;28;19939;-57
2022/09/13 12:44:07;;;;;;;1.83;1.02;;;27.80;99.90;;;;;;5046421;28;20033;-53
2022/09/13 12:47:01;;;;;;;6.45;1.30;;;28.20;99.90;;;;;;5043033;28;20025;-59
2022/09/13 12:49:54;;;;;;;3.78;1.27;;;28.30;99.90;;;;;;5046958;28;20028;-56
2022/09/13 12:52:30;;;;;;;3.50;1.63;;;28.10;99.90;;;;;;5051614;28;20021;-54
2022/09/13 12:55:14;;;;;;;2.00;1.30;;;28.30;99.90;;;;;;5052032;28;20023;-53
2022/09/13 12:58:09;;;;;;;3.70;1.60;;;28.20;99.90;;;;;;5047757;28;20052;-54
2022/09/13 13:01:00;;;;;;;6.75;1.40;;;28.20;99.90;;;;;;5045752;28;20024;-58
2022/09/13 13:03:31;;;;;;;4.40;1.25;;;28.50;99.90;;;;;;5042963;28;20044;-55
2022/09/13 13:06:18;;;;;;;3.25;1.35;;;28.80;99.90;;;;;;5051350;28;20090;-52
2022/09/13 13:08:51;;;;;;;2.75;1.00;;;28.90;99.90;;;;;;5050527;28;20036;-55
2022/09/13 13:11:21;;;;;;;2.55;1.30;;;29.20;99.90;;;;;;5040547;28;20100;-57
2022/09/13 13:14:08;;;;;;;3.83;1.95;;;29.30;99.90;;;;;;5043948;28;20478;-57
2022/09/13 13:16:37;;;;;;;3.72;1.25;;;29.10;99.90;;;;;;5100514;22;20155;-54
2022/09/13 13:19:23;;;;;;;2.03;1.08;;;28.70;99.90;;;;;;5082661;28;20107;-54
2022/09/13 13:21:48;;;;;;;4.35;1.45;;;28.90;99.90;;;;;;5079420;28;20069;-52